sensor_id;sensor_type;location;lat;lon;timestamp;P1;durP1;ratioP1;P2;durP2;ratioP2
72053;SDS011;59918;51.280;7.950;2023-02-03T00:01:35;32.97;;;18.80;;
72053;SDS011;59918;51.280;7.950;2023-02-03T00:04:01;32.22;;;18.88;;
72053;SDS011;59918;51.280;7.950;2023-02-03T00:06:26;36.58;;;18.38;;
72053;SDS011;59918;51.280;7.950;2023-02-03T00:08:52;33.90;;;19.33;;
72053;SDS011;59918;51.280;7.950;2023-02-03T00:11:22;30.25;;;18.70;;
72053;SDS011;59918;51.280;7.950;2023-02-03T00:13:47;32.25;;;20.35;;
72053;SDS011;59918;51.280;7.950;2023-02-03T00:16:12;34.13;;;19.40;;
72053;SDS011;59918;51.280;7.950;2023-02-03T00:18:38;34.92;;;21.38;;
72053;SDS011;59918;51.280;7.950;2023-02-03T00:21:03;39.90;;;21.25;;
72053;SDS011;59918;51.280;7.950;2023-02-03T00:23:32;38.13;;;21.73;;
72053;SDS011;59918;51.280;7.950;2023-02-03T00:26:11;38.67;;;23.00;;
72053;SDS011;59918;51.280;7.950;2023-02-03T00:28:38;39.80;;;22.15;;
72053;SDS011;59918;51.280;7.950;2023-02-03T00:31:03;37.35;;;22.45;;
72053;SDS011;59918;51.280;7.950;2023-02-03T00:33:35;35.70;;;21.95;;
72053;SDS011;59918;51.280;7.950;2023-02-03T00:36:04;32.78;;;21.25;;
72053;SDS011;59918;51.280;7.950;2023-02-03T00:38:32;43.63;;;30.60;;
72053;SDS011;59918;51.280;7.950;2023-02-03T00:40:58;32.53;;;20.65;;
72053;SDS011;59918;51.280;7.950;2023-02-03T00:43:23;36.95;;;20.95;;
72053;SDS011;59918;51.280;7.950;2023-02-03T00:45:48;34.45;;;19.80;;
72053;SDS011;59918;51.280;7.950;2023-02-03T00:48:13;30.58;;;18.95;;
72053;SDS011;59918;51.280;7.950;2023-02-03T00:50:39;35.20;;;18.20;;
72053;SDS011;59918;51.280;7.950;2023-02-03T00:53:04;29.60;;;17.90;;
72053;SDS011;59918;51.280;7.950;2023-02-03T00:55:32;26.83;;;17.30;;
72053;SDS011;59918;51.280;7.950;2023-02-03T00:57:58;33.25;;;17.15;;
72053;SDS011;59918;51.280;7.950;2023-02-03T01:00:23;28.40;;;15.80;;
72053;SDS011;59918;51.280;7.950;2023-02-03T01:02:48;26.67;;;16.13;;
72053;SDS011;59918;51.280;7.950;2023-02-03T01:05:13;26.40;;;15.70;;
72053;SDS011;59918;51.280;7.950;2023-02-03T01:07:39;25.63;;;15.40;;
72053;SDS011;59918;51.280;7.950;2023-02-03T01:10:10;25.25;;;15.77;;
72053;SDS011;59918;51.280;7.950;2023-02-03T01:12:36;26.55;;;16.20;;
72053;SDS011;59918;51.280;7.950;2023-02-03T01:15:01;30.17;;;16.88;;
72053;SDS011;59918;51.280;7.950;2023-02-03T01:17:26;28.35;;;16.33;;
72053;SDS011;59918;51.280;7.950;2023-02-03T01:19:51;30.02;;;16.83;;
72053;SDS011;59918;51.280;7.950;2023-02-03T01:22:20;26.52;;;16.55;;
72053;SDS011;59918;51.280;7.950;2023-02-03T01:24:45;26.58;;;15.80;;
72053;SDS011;59918;51.280;7.950;2023-02-03T01:27:10;24.75;;;14.80;;
72053;SDS011;59918;51.280;7.950;2023-02-03T01:29:38;24.02;;;14.85;;
72053;SDS011;59918;51.280;7.950;2023-02-03T01:32:03;21.65;;;14.43;;
72053;SDS011;59918;51.280;7.950;2023-02-03T01:34:34;26.85;;;14.57;;
72053;SDS011;59918;51.280;7.950;2023-02-03T01:36:59;25.55;;;14.88;;
72053;SDS011;59918;51.280;7.950;2023-02-03T01:39:24;23.35;;;14.75;;
72053;SDS011;59918;51.280;7.950;2023-02-03T01:41:50;25.80;;;15.38;;
72053;SDS011;59918;51.280;7.950;2023-02-03T01:50:05;26.63;;;14.50;;
72053;SDS011;59918;51.280;7.950;2023-02-03T01:52:40;24.00;;;15.02;;
72053;SDS011;59918;51.280;7.950;2023-02-03T01:55:16;24.30;;;14.55;;
72053;SDS011;59918;51.280;7.950;2023-02-03T01:57:50;23.85;;;14.52;;
72053;SDS011;59918;51.280;7.950;2023-02-03T02:00:20;22.48;;;13.98;;
72053;SDS011;59918;51.280;7.950;2023-02-03T02:02:46;18.63;;;13.63;;
72053;SDS011;59918;51.280;7.950;2023-02-03T02:07:44;20.50;;;12.75;;
72053;SDS011;59918;51.280;7.950;2023-02-03T02:10:11;21.45;;;12.48;;
72053;SDS011;59918;51.280;7.950;2023-02-03T02:12:37;23.73;;;11.80;;
72053;SDS011;59918;51.280;7.950;2023-02-03T02:15:02;22.17;;;11.88;;
72053;SDS011;59918;51.280;7.950;2023-02-03T02:20:24;25.90;;;12.95;;
72053;SDS011;59918;51.280;7.950;2023-02-03T02:33:48;19.92;;;12.45;;
72053;SDS011;59918;51.280;7.950;2023-02-03T02:39:24;18.50;;;11.00;;
72053;SDS011;59918;51.280;7.950;2023-02-03T02:42:03;27.25;;;12.05;;
72053;SDS011;59918;51.280;7.950;2023-02-03T02:44:48;19.45;;;11.48;;
72053;SDS011;59918;51.280;7.950;2023-02-03T02:47:21;19.88;;;10.65;;
72053;SDS011;59918;51.280;7.950;2023-02-03T02:52:25;21.88;;;10.88;;
72053;SDS011;59918;51.280;7.950;2023-02-03T02:54:59;20.42;;;11.48;;
72053;SDS011;59918;51.280;7.950;2023-02-03T02:57:29;24.02;;;10.80;;
72053;SDS011;59918;51.280;7.950;2023-02-03T03:00:03;14.80;;;10.30;;
72053;SDS011;59918;51.280;7.950;2023-02-03T03:02:35;21.80;;;10.02;;
72053;SDS011;59918;51.280;7.950;2023-02-03T03:05:04;12.53;;;9.40;;
72053;SDS011;59918;51.280;7.950;2023-02-03T03:07:38;13.52;;;8.82;;
72053;SDS011;59918;51.280;7.950;2023-02-03T03:10:12;15.65;;;9.65;;
72053;SDS011;59918;51.280;7.950;2023-02-03T03:12:47;14.80;;;9.73;;
72053;SDS011;59918;51.280;7.950;2023-02-03T03:15:19;11.65;;;8.85;;
72053;SDS011;59918;51.280;7.950;2023-02-03T03:17:53;19.45;;;9.48;;
72053;SDS011;59918;51.280;7.950;2023-02-03T03:20:23;15.52;;;9.82;;
72053;SDS011;59918;51.280;7.950;2023-02-03T03:22:53;16.42;;;9.88;;
72053;SDS011;59918;51.280;7.950;2023-02-03T03:25:28;11.75;;;8.82;;
72053;SDS011;59918;51.280;7.950;2023-02-03T03:28:01;18.38;;;9.23;;
72053;SDS011;59918;51.280;7.950;2023-02-03T03:30:36;14.40;;;9.35;;
72053;SDS011;59918;51.280;7.950;2023-02-03T03:33:02;13.02;;;9.38;;
72053;SDS011;59918;51.280;7.950;2023-02-03T03:35:40;16.48;;;10.07;;
72053;SDS011;59918;51.280;7.950;2023-02-03T03:38:18;18.48;;;10.93;;
72053;SDS011;59918;51.280;7.950;2023-02-03T03:40:55;12.85;;;9.18;;
72053;SDS011;59918;51.280;7.950;2023-02-03T03:43:28;17.77;;;10.02;;
72053;SDS011;59918;51.280;7.950;2023-02-03T03:46:02;15.95;;;9.70;;
72053;SDS011;59918;51.280;7.950;2023-02-03T03:48:36;13.40;;;8.60;;
72053;SDS011;59918;51.280;7.950;2023-02-03T03:51:12;13.43;;;9.45;;
72053;SDS011;59918;51.280;7.950;2023-02-03T03:53:43;12.93;;;8.77;;
72053;SDS011;59918;51.280;7.950;2023-02-03T03:56:16;12.88;;;9.10;;
72053;SDS011;59918;51.280;7.950;2023-02-03T03:58:47;13.77;;;9.37;;
72053;SDS011;59918;51.280;7.950;2023-02-03T04:01:14;14.88;;;9.18;;
72053;SDS011;59918;51.280;7.950;2023-02-03T04:06:30;11.60;;;8.65;;
72053;SDS011;59918;51.280;7.950;2023-02-03T04:08:59;9.32;;;8.30;;
72053;SDS011;59918;51.280;7.950;2023-02-03T04:11:24;10.82;;;8.10;;
72053;SDS011;59918;51.280;7.950;2023-02-03T04:13:49;11.98;;;7.38;;
72053;SDS011;59918;51.280;7.950;2023-02-03T04:16:15;15.07;;;7.47;;
72053;SDS011;59918;51.280;7.950;2023-02-03T04:18:40;16.65;;;7.30;;
72053;SDS011;59918;51.280;7.950;2023-02-03T04:21:14;10.63;;;7.78;;
72053;SDS011;59918;51.280;7.950;2023-02-03T04:23:39;11.23;;;7.57;;
72053;SDS011;59918;51.280;7.950;2023-02-03T04:26:04;12.30;;;7.18;;
72053;SDS011;59918;51.280;7.950;2023-02-03T04:28:29;11.90;;;7.60;;
72053;SDS011;59918;51.280;7.950;2023-02-03T04:30:54;11.70;;;8.02;;
72053;SDS011;59918;51.280;7.950;2023-02-03T04:33:25;12.07;;;8.05;;
72053;SDS011;59918;51.280;7.950;2023-02-03T04:35:51;13.73;;;8.43;;
72053;SDS011;59918;51.280;7.950;2023-02-03T04:38:16;10.60;;;7.28;;
72053;SDS011;59918;51.280;7.950;2023-02-03T04:40:41;11.70;;;7.90;;
72053;SDS011;59918;51.280;7.950;2023-02-03T04:43:06;11.68;;;8.15;;
72053;SDS011;59918;51.280;7.950;2023-02-03T04:45:36;11.57;;;8.30;;
72053;SDS011;59918;51.280;7.950;2023-02-03T04:48:02;14.82;;;8.60;;
72053;SDS011;59918;51.280;7.950;2023-02-03T04:50:27;13.07;;;7.82;;
72053;SDS011;59918;51.280;7.950;2023-02-03T04:52:52;12.48;;;8.45;;
72053;SDS011;59918;51.280;7.950;2023-02-03T04:55:17;14.43;;;8.48;;
72053;SDS011;59918;51.280;7.950;2023-02-03T04:57:43;10.27;;;8.00;;
72053;SDS011;59918;51.280;7.950;2023-02-03T05:00:18;13.25;;;8.23;;
72053;SDS011;59918;51.280;7.950;2023-02-03T05:02:44;10.00;;;8.10;;
72053;SDS011;59918;51.280;7.950;2023-02-03T05:05:15;10.82;;;7.93;;
72053;SDS011;59918;51.280;7.950;2023-02-03T05:07:41;14.38;;;8.98;;
72053;SDS011;59918;51.280;7.950;2023-02-03T05:10:14;12.68;;;9.48;;
72053;SDS011;59918;51.280;7.950;2023-02-03T05:12:39;15.73;;;12.23;;
72053;SDS011;59918;51.280;7.950;2023-02-03T05:15:05;11.77;;;8.07;;
72053;SDS011;59918;51.280;7.950;2023-02-03T05:17:30;20.45;;;12.60;;
72053;SDS011;59918;51.280;7.950;2023-02-03T05:19:55;17.17;;;9.35;;
72053;SDS011;59918;51.280;7.950;2023-02-03T05:22:24;11.45;;;9.00;;
72053;SDS011;59918;51.280;7.950;2023-02-03T05:24:49;14.38;;;8.50;;
72053;SDS011;59918;51.280;7.950;2023-02-03T05:27:14;10.30;;;9.23;;
72053;SDS011;59918;51.280;7.950;2023-02-03T05:29:39;11.55;;;7.95;;
72053;SDS011;59918;51.280;7.950;2023-02-03T05:32:05;9.95;;;7.90;;
72053;SDS011;59918;51.280;7.950;2023-02-03T05:34:37;14.00;;;8.38;;
72053;SDS011;59918;51.280;7.950;2023-02-03T05:37:03;12.48;;;8.57;;
72053;SDS011;59918;51.280;7.950;2023-02-03T05:39:28;13.48;;;8.15;;
72053;SDS011;59918;51.280;7.950;2023-02-03T05:41:53;14.73;;;8.18;;
72053;SDS011;59918;51.280;7.950;2023-02-03T05:44:25;15.13;;;7.70;;
72053;SDS011;59918;51.280;7.950;2023-02-03T05:46:54;12.55;;;8.00;;
72053;SDS011;59918;51.280;7.950;2023-02-03T05:49:24;11.43;;;8.45;;
72053;SDS011;59918;51.280;7.950;2023-02-03T05:51:50;11.70;;;7.55;;
72053;SDS011;59918;51.280;7.950;2023-02-03T05:54:16;13.10;;;8.75;;
72053;SDS011;59918;51.280;7.950;2023-02-03T05:56:42;10.32;;;7.75;;
72053;SDS011;59918;51.280;7.950;2023-02-03T05:59:07;9.63;;;8.25;;
72053;SDS011;59918;51.280;7.950;2023-02-03T06:01:33;9.48;;;8.20;;
72053;SDS011;59918;51.280;7.950;2023-02-03T06:03:59;18.02;;;10.00;;
72053;SDS011;59918;51.280;7.950;2023-02-03T06:06:25;12.30;;;8.55;;
72053;SDS011;59918;51.280;7.950;2023-02-03T06:08:50;13.00;;;8.43;;
72053;SDS011;59918;51.280;7.950;2023-02-03T06:11:16;14.65;;;8.98;;
72053;SDS011;59918;51.280;7.950;2023-02-03T06:13:41;11.73;;;8.55;;
72053;SDS011;59918;51.280;7.950;2023-02-03T06:16:08;11.75;;;9.18;;
72053;SDS011;59918;51.280;7.950;2023-02-03T06:18:34;13.95;;;9.68;;
72053;SDS011;59918;51.280;7.950;2023-02-03T06:20:59;13.43;;;8.75;;
72053;SDS011;59918;51.280;7.950;2023-02-03T06:23:24;15.05;;;8.63;;
72053;SDS011;59918;51.280;7.950;2023-02-03T06:25:50;13.45;;;10.23;;
72053;SDS011;59918;51.280;7.950;2023-02-03T06:28:15;14.40;;;9.18;;
72053;SDS011;59918;51.280;7.950;2023-02-03T06:30:41;10.98;;;9.02;;
72053;SDS011;59918;51.280;7.950;2023-02-03T06:33:06;16.02;;;8.65;;
72053;SDS011;59918;51.280;7.950;2023-02-03T06:35:31;16.95;;;9.82;;
72053;SDS011;59918;51.280;7.950;2023-02-03T06:37:57;12.95;;;9.38;;
72053;SDS011;59918;51.280;7.950;2023-02-03T06:40:22;17.55;;;10.07;;
72053;SDS011;59918;51.280;7.950;2023-02-03T06:42:47;13.40;;;9.35;;
72053;SDS011;59918;51.280;7.950;2023-02-03T06:45:13;18.52;;;9.75;;
72053;SDS011;59918;51.280;7.950;2023-02-03T06:47:39;11.95;;;9.65;;
72053;SDS011;59918;51.280;7.950;2023-02-03T06:50:05;15.10;;;10.13;;
72053;SDS011;59918;51.280;7.950;2023-02-03T06:52:31;13.63;;;9.38;;
72053;SDS011;59918;51.280;7.950;2023-02-03T06:54:56;17.55;;;9.80;;
72053;SDS011;59918;51.280;7.950;2023-02-03T06:57:22;11.82;;;9.25;;
72053;SDS011;59918;51.280;7.950;2023-02-03T06:59:47;17.10;;;9.98;;
72053;SDS011;59918;51.280;7.950;2023-02-03T07:02:12;14.27;;;9.27;;
72053;SDS011;59918;51.280;7.950;2023-02-03T07:04:37;16.02;;;9.80;;
72053;SDS011;59918;51.280;7.950;2023-02-03T07:07:03;13.00;;;9.48;;
72053;SDS011;59918;51.280;7.950;2023-02-03T07:09:28;14.43;;;9.25;;
72053;SDS011;59918;51.280;7.950;2023-02-03T07:11:53;14.57;;;9.35;;
72053;SDS011;59918;51.280;7.950;2023-02-03T07:14:19;11.57;;;9.45;;
72053;SDS011;59918;51.280;7.950;2023-02-03T07:16:44;15.27;;;9.50;;
72053;SDS011;59918;51.280;7.950;2023-02-03T07:19:09;15.02;;;9.65;;
72053;SDS011;59918;51.280;7.950;2023-02-03T07:21:34;10.90;;;9.07;;
72053;SDS011;59918;51.280;7.950;2023-02-03T07:23:59;11.70;;;9.30;;
72053;SDS011;59918;51.280;7.950;2023-02-03T07:26:25;15.68;;;8.73;;
72053;SDS011;59918;51.280;7.950;2023-02-03T07:28:50;14.88;;;9.27;;
72053;SDS011;59918;51.280;7.950;2023-02-03T07:31:15;14.38;;;9.27;;
72053;SDS011;59918;51.280;7.950;2023-02-03T07:33:41;13.50;;;8.73;;
72053;SDS011;59918;51.280;7.950;2023-02-03T07:36:06;13.55;;;9.23;;
72053;SDS011;59918;51.280;7.950;2023-02-03T07:38:32;11.27;;;9.05;;
72053;SDS011;59918;51.280;7.950;2023-02-03T07:40:57;14.27;;;10.20;;
72053;SDS011;59918;51.280;7.950;2023-02-03T07:43:22;16.38;;;10.38;;
72053;SDS011;59918;51.280;7.950;2023-02-03T07:45:48;16.15;;;11.48;;
72053;SDS011;59918;51.280;7.950;2023-02-03T07:48:13;12.63;;;10.25;;
72053;SDS011;59918;51.280;7.950;2023-02-03T07:50:39;12.07;;;10.77;;
72053;SDS011;59918;51.280;7.950;2023-02-03T07:53:05;16.60;;;9.98;;
72053;SDS011;59918;51.280;7.950;2023-02-03T07:55:31;13.15;;;10.95;;
72053;SDS011;59918;51.280;7.950;2023-02-03T07:57:57;14.23;;;10.23;;
72053;SDS011;59918;51.280;7.950;2023-02-03T08:00:23;12.77;;;10.02;;
72053;SDS011;59918;51.280;7.950;2023-02-03T08:02:48;13.13;;;9.65;;
72053;SDS011;59918;51.280;7.950;2023-02-03T08:05:14;14.30;;;9.68;;
72053;SDS011;59918;51.280;7.950;2023-02-03T08:07:40;20.75;;;10.50;;
72053;SDS011;59918;51.280;7.950;2023-02-03T08:10:06;14.48;;;11.20;;
72053;SDS011;59918;51.280;7.950;2023-02-03T08:12:32;15.25;;;9.23;;
72053;SDS011;59918;51.280;7.950;2023-02-03T08:14:57;13.23;;;10.30;;
72053;SDS011;59918;51.280;7.950;2023-02-03T08:17:25;15.48;;;10.02;;
72053;SDS011;59918;51.280;7.950;2023-02-03T08:19:50;13.70;;;9.88;;
72053;SDS011;59918;51.280;7.950;2023-02-03T08:22:16;16.38;;;9.90;;
72053;SDS011;59918;51.280;7.950;2023-02-03T08:24:41;14.27;;;10.30;;
72053;SDS011;59918;51.280;7.950;2023-02-03T08:27:07;13.32;;;9.93;;
72053;SDS011;59918;51.280;7.950;2023-02-03T08:29:33;13.25;;;10.48;;
72053;SDS011;59918;51.280;7.950;2023-02-03T08:31:58;16.88;;;11.27;;
72053;SDS011;59918;51.280;7.950;2023-02-03T08:34:23;14.05;;;11.40;;
72053;SDS011;59918;51.280;7.950;2023-02-03T08:36:48;14.80;;;10.32;;
72053;SDS011;59918;51.280;7.950;2023-02-03T08:39:14;17.60;;;10.15;;
72053;SDS011;59918;51.280;7.950;2023-02-03T08:41:39;12.82;;;10.32;;
72053;SDS011;59918;51.280;7.950;2023-02-03T08:44:04;19.27;;;11.50;;
72053;SDS011;59918;51.280;7.950;2023-02-03T08:46:29;18.05;;;11.48;;
72053;SDS011;59918;51.280;7.950;2023-02-03T08:48:55;17.88;;;10.85;;
72053;SDS011;59918;51.280;7.950;2023-02-03T08:51:20;14.52;;;11.25;;
72053;SDS011;59918;51.280;7.950;2023-02-03T08:53:45;12.88;;;10.10;;
72053;SDS011;59918;51.280;7.950;2023-02-03T08:56:11;14.93;;;10.93;;
72053;SDS011;59918;51.280;7.950;2023-02-03T08:58:36;15.57;;;10.30;;
72053;SDS011;59918;51.280;7.950;2023-02-03T09:01:06;16.90;;;10.65;;
72053;SDS011;59918;51.280;7.950;2023-02-03T09:03:35;13.68;;;10.80;;
72053;SDS011;59918;51.280;7.950;2023-02-03T09:06:01;15.90;;;10.05;;
72053;SDS011;59918;51.280;7.950;2023-02-03T09:08:27;19.67;;;12.00;;
72053;SDS011;59918;51.280;7.950;2023-02-03T09:10:53;16.10;;;11.50;;
72053;SDS011;59918;51.280;7.950;2023-02-03T09:13:18;14.63;;;10.25;;
72053;SDS011;59918;51.280;7.950;2023-02-03T09:15:43;17.10;;;11.30;;
72053;SDS011;59918;51.280;7.950;2023-02-03T09:18:09;18.65;;;9.95;;
72053;SDS011;59918;51.280;7.950;2023-02-03T09:20:34;14.07;;;8.75;;
72053;SDS011;59918;51.280;7.950;2023-02-03T09:22:59;14.75;;;10.13;;
72053;SDS011;59918;51.280;7.950;2023-02-03T09:25:24;10.27;;;8.38;;
72053;SDS011;59918;51.280;7.950;2023-02-03T09:27:50;11.75;;;8.30;;
72053;SDS011;59918;51.280;7.950;2023-02-03T09:30:15;12.20;;;8.27;;
72053;SDS011;59918;51.280;7.950;2023-02-03T09:32:41;15.65;;;8.07;;
72053;SDS011;59918;51.280;7.950;2023-02-03T09:35:06;9.38;;;8.30;;
72053;SDS011;59918;51.280;7.950;2023-02-03T09:37:31;13.02;;;7.75;;
72053;SDS011;59918;51.280;7.950;2023-02-03T09:39:56;8.45;;;7.25;;
72053;SDS011;59918;51.280;7.950;2023-02-03T09:45:16;9.27;;;7.22;;
72053;SDS011;59918;51.280;7.950;2023-02-03T09:47:48;8.98;;;7.15;;
72053;SDS011;59918;51.280;7.950;2023-02-03T09:50:18;11.00;;;8.18;;
72053;SDS011;59918;51.280;7.950;2023-02-03T09:52:44;11.50;;;8.20;;
72053;SDS011;59918;51.280;7.950;2023-02-03T09:58:17;7.85;;;6.75;;
72053;SDS011;59918;51.280;7.950;2023-02-03T10:00:48;14.63;;;7.45;;
72053;SDS011;59918;51.280;7.950;2023-02-03T10:06:07;10.32;;;7.80;;
72053;SDS011;59918;51.280;7.950;2023-02-03T10:19:35;11.30;;;7.57;;
72053;SDS011;59918;51.280;7.950;2023-02-03T10:22:07;9.60;;;7.68;;
72053;SDS011;59918;51.280;7.950;2023-02-03T10:24:43;12.82;;;8.00;;
72053;SDS011;59918;51.280;7.950;2023-02-03T10:27:15;14.25;;;9.13;;
72053;SDS011;59918;51.280;7.950;2023-02-03T10:29:43;12.13;;;9.20;;
72053;SDS011;59918;51.280;7.950;2023-02-03T10:32:09;14.35;;;8.50;;
72053;SDS011;59918;51.280;7.950;2023-02-03T10:34:35;12.80;;;9.50;;
72053;SDS011;59918;51.280;7.950;2023-02-03T10:37:11;20.25;;;12.52;;
72053;SDS011;59918;51.280;7.950;2023-02-03T10:39:48;16.55;;;10.52;;
72053;SDS011;59918;51.280;7.950;2023-02-03T10:42:15;19.10;;;10.52;;
72053;SDS011;59918;51.280;7.950;2023-02-03T10:44:49;18.60;;;11.02;;
72053;SDS011;59918;51.280;7.950;2023-02-03T10:47:22;17.55;;;11.02;;
72053;SDS011;59918;51.280;7.950;2023-02-03T10:49:49;19.52;;;12.43;;
72053;SDS011;59918;51.280;7.950;2023-02-03T10:52:26;15.85;;;11.07;;
72053;SDS011;59918;51.280;7.950;2023-02-03T10:54:53;17.55;;;11.23;;
72053;SDS011;59918;51.280;7.950;2023-02-03T10:57:19;22.60;;;11.77;;
72053;SDS011;59918;51.280;7.950;2023-02-03T10:59:45;18.10;;;12.00;;
72053;SDS011;59918;51.280;7.950;2023-02-03T11:02:32;19.75;;;12.55;;
72053;SDS011;59918;51.280;7.950;2023-02-03T11:05:10;19.58;;;12.23;;
72053;SDS011;59918;51.280;7.950;2023-02-03T11:07:43;19.88;;;10.77;;
72053;SDS011;59918;51.280;7.950;2023-02-03T11:21:09;19.35;;;12.27;;
72053;SDS011;59918;51.280;7.950;2023-02-03T11:23:48;20.45;;;12.70;;
72053;SDS011;59918;51.280;7.950;2023-02-03T11:26:14;17.85;;;11.07;;
72053;SDS011;59918;51.280;7.950;2023-02-03T11:28:45;16.45;;;12.32;;
72053;SDS011;59918;51.280;7.950;2023-02-03T11:31:19;20.00;;;11.35;;
72053;SDS011;59918;51.280;7.950;2023-02-03T11:33:48;27.85;;;13.85;;
72053;SDS011;59918;51.280;7.950;2023-02-03T11:36:17;21.20;;;12.52;;
72053;SDS011;59918;51.280;7.950;2023-02-03T11:38:42;21.83;;;14.07;;
72053;SDS011;59918;51.280;7.950;2023-02-03T11:41:18;24.23;;;14.52;;
72053;SDS011;59918;51.280;7.950;2023-02-03T11:43:47;23.35;;;13.80;;
72053;SDS011;59918;51.280;7.950;2023-02-03T11:46:12;26.38;;;13.85;;
72053;SDS011;59918;51.280;7.950;2023-02-03T11:48:49;22.42;;;13.50;;
72053;SDS011;59918;51.280;7.950;2023-02-03T11:51:44;25.45;;;14.30;;
72053;SDS011;59918;51.280;7.950;2023-02-03T12:05:44;21.92;;;12.13;;
72053;SDS011;59918;51.280;7.950;2023-02-03T12:11:11;20.42;;;11.43;;
72053;SDS011;59918;51.280;7.950;2023-02-03T12:13:50;16.92;;;10.52;;
72053;SDS011;59918;51.280;7.950;2023-02-03T12:16:41;16.48;;;11.95;;
72053;SDS011;59918;51.280;7.950;2023-02-03T12:22:11;19.45;;;13.55;;
72053;SDS011;59918;51.280;7.950;2023-02-03T12:25:13;22.58;;;13.68;;
72053;SDS011;59918;51.280;7.950;2023-02-03T12:31:13;34.72;;;16.73;;
72053;SDS011;59918;51.280;7.950;2023-02-03T12:33:49;24.80;;;15.75;;
72053;SDS011;59918;51.280;7.950;2023-02-03T12:39:21;34.33;;;17.95;;
72053;SDS011;59918;51.280;7.950;2023-02-03T12:45:08;33.15;;;18.60;;
72053;SDS011;59918;51.280;7.950;2023-02-03T12:47:42;30.45;;;18.10;;
72053;SDS011;59918;51.280;7.950;2023-02-03T12:56:23;30.83;;;17.05;;
72053;SDS011;59918;51.280;7.950;2023-02-03T13:02:01;26.13;;;15.23;;
72053;SDS011;59918;51.280;7.950;2023-02-03T13:04:49;28.67;;;16.48;;
72053;SDS011;59918;51.280;7.950;2023-02-03T13:07:48;31.85;;;16.35;;
72053;SDS011;59918;51.280;7.950;2023-02-03T13:10:44;25.70;;;15.23;;
72053;SDS011;59918;51.280;7.950;2023-02-03T13:13:19;25.83;;;15.18;;
72053;SDS011;59918;51.280;7.950;2023-02-03T13:15:52;30.00;;;16.67;;
72053;SDS011;59918;51.280;7.950;2023-02-03T13:18:30;27.58;;;16.65;;
72053;SDS011;59918;51.280;7.950;2023-02-03T13:21:04;28.48;;;16.25;;
72053;SDS011;59918;51.280;7.950;2023-02-03T13:23:29;23.63;;;15.63;;
72053;SDS011;59918;51.280;7.950;2023-02-03T13:28:38;27.90;;;16.30;;
72053;SDS011;59918;51.280;7.950;2023-02-03T13:42:31;22.27;;;11.55;;
72053;SDS011;59918;51.280;7.950;2023-02-03T13:48:12;20.83;;;14.40;;
72053;SDS011;59918;51.280;7.950;2023-02-03T13:50:46;22.83;;;14.57;;
72053;SDS011;59918;51.280;7.950;2023-02-03T13:55:56;24.67;;;14.20;;
72053;SDS011;59918;51.280;7.950;2023-02-03T13:58:30;16.42;;;12.30;;
72053;SDS011;59918;51.280;7.950;2023-02-03T14:03:55;19.55;;;11.25;;
72053;SDS011;59918;51.280;7.950;2023-02-03T14:11:45;21.40;;;10.95;;
72053;SDS011;59918;51.280;7.950;2023-02-03T14:24:43;23.50;;;7.32;;
72053;SDS011;59918;51.280;7.950;2023-02-03T14:27:20;21.98;;;6.07;;
72053;SDS011;59918;51.280;7.950;2023-02-03T14:30:02;18.40;;;4.85;;
72053;SDS011;59918;51.280;7.950;2023-02-03T14:35:32;18.40;;;4.68;;
72053;SDS011;59918;51.280;7.950;2023-02-03T14:38:07;21.70;;;4.60;;
72053;SDS011;59918;51.280;7.950;2023-02-03T14:43:20;21.77;;;6.45;;
72053;SDS011;59918;51.280;7.950;2023-02-03T14:46:15;18.20;;;3.92;;
72053;SDS011;59918;51.280;7.950;2023-02-03T14:59:59;20.42;;;3.60;;
72053;SDS011;59918;51.280;7.950;2023-02-03T15:02:26;23.77;;;4.60;;
72053;SDS011;59918;51.280;7.950;2023-02-03T15:07:42;27.95;;;4.97;;
72053;SDS011;59918;51.280;7.950;2023-02-03T15:10:11;21.45;;;4.57;;
72053;SDS011;59918;51.280;7.950;2023-02-03T15:12:48;22.30;;;4.80;;
72053;SDS011;59918;51.280;7.950;2023-02-03T15:17:46;19.02;;;4.97;;
72053;SDS011;59918;51.280;7.950;2023-02-03T15:22:58;21.65;;;5.15;;
72053;SDS011;59918;51.280;7.950;2023-02-03T15:25:23;23.60;;;6.15;;
72053;SDS011;59918;51.280;7.950;2023-02-03T15:27:53;25.92;;;5.15;;
72053;SDS011;59918;51.280;7.950;2023-02-03T15:30:25;26.95;;;5.10;;
72053;SDS011;59918;51.280;7.950;2023-02-03T15:32:59;25.17;;;5.05;;
72053;SDS011;59918;51.280;7.950;2023-02-03T15:35:33;27.73;;;5.15;;
72053;SDS011;59918;51.280;7.950;2023-02-03T15:38:13;29.85;;;4.75;;
72053;SDS011;59918;51.280;7.950;2023-02-03T15:40:53;21.58;;;5.07;;
72053;SDS011;59918;51.280;7.950;2023-02-03T15:51:43;27.92;;;5.30;;
72053;SDS011;59918;51.280;7.950;2023-02-03T15:53:55;26.90;;;5.35;;
72053;SDS011;59918;51.280;7.950;2023-02-03T15:56:57;24.70;;;5.10;;
72053;SDS011;59918;51.280;7.950;2023-02-03T15:59:35;23.75;;;5.82;;
72053;SDS011;59918;51.280;7.950;2023-02-03T16:02:11;23.75;;;5.28;;
72053;SDS011;59918;51.280;7.950;2023-02-03T16:04:41;18.23;;;4.57;;
72053;SDS011;59918;51.280;7.950;2023-02-03T16:07:11;24.70;;;5.20;;
72053;SDS011;59918;51.280;7.950;2023-02-03T16:10:05;21.25;;;4.63;;
72053;SDS011;59918;51.280;7.950;2023-02-03T16:12:31;31.42;;;5.07;;
72053;SDS011;59918;51.280;7.950;2023-02-03T16:14:58;30.48;;;5.18;;
72053;SDS011;59918;51.280;7.950;2023-02-03T16:17:30;25.75;;;5.18;;
72053;SDS011;59918;51.280;7.950;2023-02-03T16:22:35;29.20;;;5.88;;
72053;SDS011;59918;51.280;7.950;2023-02-03T16:28:02;30.35;;;6.03;;
72053;SDS011;59918;51.280;7.950;2023-02-03T16:30:34;27.77;;;5.70;;
72053;SDS011;59918;51.280;7.950;2023-02-03T16:35:33;24.52;;;4.88;;
72053;SDS011;59918;51.280;7.950;2023-02-03T16:38:06;35.45;;;4.93;;
72053;SDS011;59918;51.280;7.950;2023-02-03T16:40:32;18.13;;;4.18;;
72053;SDS011;59918;51.280;7.950;2023-02-03T16:42:57;22.50;;;5.57;;
72053;SDS011;59918;51.280;7.950;2023-02-03T16:45:23;20.70;;;5.38;;
72053;SDS011;59918;51.280;7.950;2023-02-03T16:47:48;17.25;;;4.30;;
72053;SDS011;59918;51.280;7.950;2023-02-03T16:50:20;19.35;;;4.07;;
72053;SDS011;59918;51.280;7.950;2023-02-03T16:52:48;22.83;;;4.43;;
72053;SDS011;59918;51.280;7.950;2023-02-03T16:55:13;21.63;;;4.30;;
72053;SDS011;59918;51.280;7.950;2023-02-03T16:57:44;26.10;;;4.60;;
72053;SDS011;59918;51.280;7.950;2023-02-03T17:00:10;28.52;;;5.57;;
72053;SDS011;59918;51.280;7.950;2023-02-03T17:02:36;23.73;;;4.90;;
72053;SDS011;59918;51.280;7.950;2023-02-03T17:05:10;25.30;;;4.22;;
72053;SDS011;59918;51.280;7.950;2023-02-03T17:07:36;22.58;;;4.90;;
72053;SDS011;59918;51.280;7.950;2023-02-03T17:10:01;21.52;;;4.78;;
72053;SDS011;59918;51.280;7.950;2023-02-03T17:12:29;21.25;;;4.60;;
72053;SDS011;59918;51.280;7.950;2023-02-03T17:14:55;18.00;;;3.88;;
72053;SDS011;59918;51.280;7.950;2023-02-03T17:17:20;26.05;;;3.90;;
72053;SDS011;59918;51.280;7.950;2023-02-03T17:19:45;21.40;;;4.15;;
72053;SDS011;59918;51.280;7.950;2023-02-03T17:22:11;25.48;;;4.57;;
72053;SDS011;59918;51.280;7.950;2023-02-03T17:24:36;19.75;;;5.25;;
72053;SDS011;59918;51.280;7.950;2023-02-03T17:27:01;23.63;;;4.82;;
72053;SDS011;59918;51.280;7.950;2023-02-03T17:29:29;21.55;;;5.10;;
72053;SDS011;59918;51.280;7.950;2023-02-03T17:31:55;26.33;;;4.80;;
72053;SDS011;59918;51.280;7.950;2023-02-03T17:34:20;20.05;;;3.92;;
72053;SDS011;59918;51.280;7.950;2023-02-03T17:36:45;26.02;;;4.50;;